createdAt,value
2022-08-21T00:01:21.617Z,16.76
2022-08-21T00:06:24.858Z,16.80
2022-08-21T00:11:28.035Z,16.74
2022-08-21T00:16:29.719Z,16.65
2022-08-21T00:21:31.390Z,16.60
2022-08-21T00:26:33.125Z,16.57
2022-08-21T00:31:34.893Z,16.59
2022-08-21T00:36:37.108Z,16.65
2022-08-21T00:41:39.866Z,16.60
2022-08-21T00:46:42.358Z,16.69
2022-08-21T00:51:51.581Z,16.72
2022-08-21T00:56:57.983Z,16.55
2022-08-21T01:02:01.876Z,16.42
2022-08-21T01:07:04.332Z,16.39
2022-08-21T01:12:06.404Z,16.34
2022-08-21T01:17:09.247Z,16.23
2022-08-21T01:22:11.009Z,16.13
2022-08-21T01:27:12.834Z,16.09
2022-08-21T01:32:18.366Z,15.98
2022-08-21T01:37:22.371Z,15.90
2022-08-21T01:42:24.334Z,15.82
2022-08-21T01:47:26.252Z,15.77
2022-08-21T01:52:28.066Z,15.74
2022-08-21T01:57:29.832Z,15.70
2022-08-21T02:02:31.471Z,15.84
2022-08-21T02:07:55.352Z,16.06
2022-08-21T02:12:58.286Z,16.13
2022-08-21T02:18:02.838Z,16.24
2022-08-21T02:23:06.101Z,16.22
2022-08-21T02:28:11.668Z,16.26
2022-08-21T02:33:14.116Z,16.29
2022-08-21T02:38:19.261Z,16.24
2022-08-21T02:43:23.659Z,16.28
2022-08-21T02:48:29.379Z,16.31
2022-08-21T02:53:32.500Z,16.25
2022-08-21T02:58:39.436Z,16.21
2022-08-21T03:03:44.881Z,16.18
2022-08-21T03:08:46.876Z,16.15
2022-08-21T03:13:48.503Z,16.09
2022-08-21T03:18:50.200Z,16.03
2022-08-21T03:23:51.937Z,15.98
2022-08-21T03:28:53.882Z,15.99
2022-08-21T03:33:56.553Z,16.03
2022-08-21T03:38:58.227Z,16.02
2022-08-21T03:44:00.196Z,16.12
2022-08-21T03:49:01.917Z,16.15
2022-08-21T03:54:04.130Z,16.19
2022-08-21T03:59:06.486Z,16.10
2022-08-21T04:04:08.105Z,16.11
2022-08-21T04:09:09.745Z,16.23
2022-08-21T04:14:11.372Z,16.21
2022-08-21T04:19:16.998Z,16.21
2022-08-21T04:24:18.668Z,16.28
2022-08-21T04:29:20.866Z,16.28
2022-08-21T04:34:22.561Z,16.40
2022-08-21T04:39:25.226Z,16.47
2022-08-21T04:44:32.024Z,16.48
2022-08-21T04:49:34.115Z,16.51
2022-08-21T04:54:36.112Z,16.58
2022-08-21T04:59:44.114Z,16.63
2022-08-21T05:04:54.537Z,16.74
2022-08-21T05:09:56.231Z,16.82
2022-08-21T05:14:57.830Z,16.91
2022-08-21T05:19:59.475Z,17.09
2022-08-21T05:25:01.097Z,17.23
2022-08-21T05:30:04.337Z,17.50
2022-08-21T05:35:07.804Z,17.58
2022-08-21T05:40:21.906Z,17.76
2022-08-21T05:45:41.521Z,17.84
2022-08-21T05:50:48.001Z,18.00
2022-08-21T05:55:49.848Z,18.08
2022-08-21T06:00:53.786Z,18.21
2022-08-21T06:05:56.624Z,18.39
2022-08-21T06:11:00.689Z,18.59
2022-08-21T06:16:15.731Z,18.66
2022-08-21T06:21:18.061Z,18.90
2022-08-21T06:26:21.096Z,19.15
2022-08-21T06:31:24.780Z,19.29
2022-08-21T06:36:26.864Z,19.16
2022-08-21T06:41:28.542Z,19.16
2022-08-21T06:46:31.249Z,19.14
2022-08-21T06:51:32.839Z,19.03
2022-08-21T06:56:36.206Z,19.18
2022-08-21T07:01:37.844Z,19.40
2022-08-21T07:06:39.498Z,19.25
2022-08-21T07:11:45.369Z,19.13
2022-08-21T07:16:50.073Z,19.05
2022-08-21T07:21:59.422Z,19.02
2022-08-21T07:27:01.044Z,18.96
2022-08-21T07:32:02.832Z,19.29
2022-08-21T07:37:09.935Z,19.51
2022-08-21T07:42:11.873Z,19.43
2022-08-21T07:47:13.522Z,19.67
2022-08-21T07:52:15.159Z,19.99
2022-08-21T07:57:16.885Z,20.06
2022-08-21T08:02:28.417Z,20.33
2022-08-21T08:07:30.324Z,20.18
2022-08-21T08:12:31.984Z,20.28
2022-08-21T08:17:33.657Z,20.23
2022-08-21T08:22:37.243Z,20.58
2022-08-21T08:27:39.941Z,20.99
2022-08-21T08:32:42.365Z,21.17
2022-08-21T08:37:52.284Z,21.07
2022-08-21T08:42:54.556Z,21.30
2022-08-21T08:48:03.968Z,21.73
2022-08-21T08:53:09.618Z,21.74
2022-08-21T08:58:21.410Z,21.54
2022-08-21T09:03:27.688Z,20.73
2022-08-21T09:08:30.364Z,21.04
2022-08-21T09:14:07.545Z,21.54
2022-08-21T09:19:31.248Z,20.78
2022-08-21T09:24:50.005Z,21.22
2022-08-21T09:29:55.307Z,21.69
2022-08-21T09:35:04.584Z,22.19
2022-08-21T09:40:21.889Z,22.17
2022-08-21T09:45:23.560Z,21.49
2022-08-21T09:50:28.543Z,22.13
2022-08-21T09:55:53.570Z,22.78
2022-08-21T10:01:01.167Z,21.62
2022-08-21T10:06:09.698Z,21.99
2022-08-21T10:11:15.526Z,22.49
2022-08-21T10:16:48.190Z,22.20
2022-08-21T10:22:07.641Z,23.39
2022-08-21T10:27:40.050Z,23.67
2022-08-21T10:33:49.676Z,24.41
2022-08-21T10:39:36.175Z,24.51
2022-08-21T10:45:00.243Z,24.13
2022-08-21T10:50:28.026Z,24.43
2022-08-21T10:55:55.467Z,24.82
2022-08-21T11:01:10.184Z,26.63
2022-08-21T11:06:32.928Z,26.15
2022-08-21T11:11:50.120Z,24.45
2022-08-21T11:17:16.428Z,25.29
2022-08-21T11:22:27.524Z,25.87
2022-08-21T11:27:35.248Z,24.28
2022-08-21T11:32:42.891Z,23.59
2022-08-21T11:38:35.743Z,25.69
2022-08-21T11:43:47.124Z,26.18
2022-08-21T11:49:06.773Z,25.92
2022-08-21T11:54:30.693Z,25.94
2022-08-21T11:59:46.427Z,25.01
2022-08-21T12:04:58.580Z,24.23
2022-08-21T12:10:06.110Z,28.30
2022-08-21T12:15:23.100Z,31.97
2022-08-21T12:20:28.246Z,31.50
2022-08-21T12:25:39.107Z,33.11
2022-08-21T12:30:46.306Z,28.39
2022-08-21T12:35:50.565Z,28.71
2022-08-21T12:40:57.863Z,29.05
2022-08-21T12:46:05.349Z,31.14
2022-08-21T12:51:17.978Z,33.47
2022-08-21T12:56:24.644Z,30.81
2022-08-21T13:01:38.180Z,33.83
2022-08-21T13:06:46.124Z,37.81
2022-08-21T13:11:49.971Z,33.91
2022-08-21T13:16:59.823Z,32.55
2022-08-21T13:22:02.475Z,35.10
2022-08-21T13:27:27.444Z,35.59
2022-08-21T13:32:31.334Z,37.68
2022-08-21T13:37:33.020Z,40.04
2022-08-21T13:42:34.807Z,36.62
2022-08-21T13:47:36.657Z,33.20
2022-08-21T13:52:49.280Z,35.80
2022-08-21T13:58:01.648Z,39.13
2022-08-21T14:03:09.012Z,41.73
2022-08-21T14:08:21.381Z,43.31
2022-08-21T14:13:44.368Z,44.20
2022-08-21T14:18:53.636Z,42.62
2022-08-21T14:24:35.781Z,36.76
2022-08-21T14:29:42.104Z,35.68
2022-08-21T14:34:45.703Z,40.20
2022-08-21T14:39:48.539Z,42.09
2022-08-21T14:44:50.359Z,41.88
2022-08-21T14:49:54.804Z,43.10
2022-08-21T14:54:56.456Z,33.96
2022-08-21T15:00:01.762Z,33.42
2022-08-21T15:05:04.795Z,33.03
2022-08-21T15:10:07.535Z,29.95
2022-08-21T15:15:11.692Z,27.92
2022-08-21T15:20:15.836Z,27.20
2022-08-21T15:25:17.485Z,26.94
2022-08-21T15:30:19.370Z,27.29
2022-08-21T15:35:21.130Z,26.94
2022-08-21T15:40:23.416Z,26.23
2022-08-21T15:45:25.448Z,25.99
2022-08-21T15:50:29.051Z,25.00
2022-08-21T15:55:31.313Z,25.32
2022-08-21T16:00:36.378Z,25.26
2022-08-21T16:05:38.094Z,24.70
2022-08-21T16:10:40.976Z,24.27
2022-08-21T16:15:42.639Z,24.18
2022-08-21T16:20:44.715Z,23.79
2022-08-21T16:25:47.345Z,23.62
2022-08-21T16:30:51.329Z,22.96
2022-08-21T16:35:53.227Z,22.36
2022-08-21T16:40:55.481Z,22.26
2022-08-21T16:45:58.456Z,22.25
2022-08-21T16:51:00.169Z,22.10
2022-08-21T16:56:02.185Z,21.92
2022-08-21T17:01:07.602Z,21.54
2022-08-21T17:06:10.278Z,21.12
2022-08-21T17:11:36.514Z,20.83
2022-08-21T17:16:42.571Z,20.73
2022-08-21T17:21:44.457Z,20.44
2022-08-21T17:26:46.278Z,20.32
2022-08-21T17:31:47.941Z,20.11
2022-08-21T17:36:49.624Z,19.92
2022-08-21T17:41:56.357Z,19.65
2022-08-21T17:46:59.864Z,19.39
2022-08-21T17:52:01.620Z,19.19
2022-08-21T17:57:04.699Z,18.98
2022-08-21T18:02:10.432Z,18.71
2022-08-21T18:07:31.888Z,18.40
2022-08-21T18:12:35.236Z,18.13
2022-08-21T18:17:37.244Z,17.89
2022-08-21T18:22:38.903Z,17.70
2022-08-21T18:27:44.133Z,17.61
2022-08-21T18:32:46.515Z,17.37
2022-08-21T18:37:48.165Z,17.17
2022-08-21T18:42:55.872Z,17.09
2022-08-21T18:47:58.771Z,16.93
2022-08-21T18:53:00.402Z,16.72
2022-08-21T18:58:02.655Z,16.44
2022-08-21T19:03:06.005Z,16.19
2022-08-21T19:08:13.119Z,16.00
2022-08-21T19:13:18.488Z,15.88
2022-08-21T19:23:52.720Z,15.57
2022-08-21T19:34:26.331Z,15.25
2022-08-21T19:39:28.157Z,15.05
2022-08-21T19:44:31.027Z,14.88
2022-08-21T19:49:34.703Z,14.69
2022-08-21T19:54:36.534Z,14.54
2022-08-21T19:59:40.651Z,14.45
2022-08-21T20:04:53.601Z,14.36
2022-08-21T20:09:56.911Z,14.19
2022-08-21T20:14:59.351Z,14.04
2022-08-21T20:20:00.988Z,14.06
2022-08-21T20:25:03.809Z,13.96
2022-08-21T20:30:07.460Z,13.80
2022-08-21T20:35:12.344Z,13.68
2022-08-21T20:40:16.541Z,13.54
2022-08-21T20:45:27.228Z,13.42
2022-08-21T20:50:31.847Z,13.36
2022-08-21T20:55:37.374Z,13.28
2022-08-21T21:00:41.834Z,13.22
2022-08-21T21:05:50.247Z,13.10
2022-08-21T21:10:57.297Z,13.04
2022-08-21T21:16:17.998Z,12.89
2022-08-21T21:21:32.968Z,12.75
2022-08-21T21:26:50.342Z,12.61
2022-08-21T21:31:53.814Z,12.54
2022-08-21T21:37:13.587Z,12.52
2022-08-21T21:42:30.368Z,12.52
2022-08-21T21:48:14.129Z,12.40
2022-08-21T21:53:51.501Z,12.34
2022-08-21T21:59:17.699Z,12.27
2022-08-21T22:04:32.227Z,12.17
2022-08-21T22:09:39.312Z,12.08
2022-08-21T22:14:42.289Z,12.01
2022-08-21T22:19:46.243Z,11.92
2022-08-21T22:24:54.211Z,11.92
2022-08-21T22:30:01.305Z,11.85
2022-08-21T22:35:18.386Z,11.81
2022-08-21T22:40:26.176Z,11.76
2022-08-21T22:45:28.977Z,11.71
2022-08-21T22:50:33.447Z,11.61
2022-08-21T22:55:43.769Z,11.55
2022-08-21T23:00:56.903Z,11.51
2022-08-21T23:06:03.164Z,11.44
2022-08-21T23:11:20.881Z,11.44
2022-08-21T23:16:52.921Z,11.40
2022-08-21T23:22:09.677Z,11.31
2022-08-21T23:27:27.153Z,11.26
2022-08-21T23:33:12.025Z,11.17
2022-08-21T23:38:45.484Z,11.11
2022-08-21T23:43:59.609Z,11.03
2022-08-21T23:49:29.176Z,10.97
2022-08-21T23:54:51.255Z,10.89
2022-08-21T23:59:53.343Z,10.82
